釧路空港の過去48時間の天気

釧路空港 (Kushiro)

現在時刻: 4/26 20:11 JST (4/26 11:11 UTC) 以下の時間は現地時間です。

過去48時間のMETAR気象情報
時間 風向 風速(m/s) 視程 気温(℃) 湿度(%) 気圧(hPa) 天気現象
26 20:00 3 10km以上 7 81 1000
26 19:00 南南西 5 10km以上 8 76 999
26 18:00 5 10km以上 8 76 999
26 17:00 北西 3 10km以上 13 54 998
26 16:00 北西 4 10km以上 13 54 998
26 15:00 北北西 6 10km以上 12 62 997
26 14:00 北北西 5 10km以上 12 62 997 弱いしゅう雨
26 13:00 北北西 6 10km以上 15 51 996
26 12:00 西北西 3 10km以上 13 58 997
26 11:00 北西 5 10km以上 12 58 997
26 10:00 北西 5 10km以上 10 66 998 弱いしゅう雨
26 09:00 北西 6 10km以上 10 66 998
26 08:00 西 4 10km以上 8 71 998
26 07:00 3 10km以上 7 81 999
26 06:45 北北西 2 10km以上 7 81 999
25 20:00 8 10km以上 5 93 1007 弱いしゅう雨
25 19:46 8 10km以上 4 93 1007 弱いしゅう雨
25 19:28 北北東 8 8,000m 5 93 1007 しゅう雨
25 19:00 7 10km以上 5 93 1008 弱いしゅう雨
25 18:00 北北東 7 10km以上 5 87 1008 弱いしゅう雨
25 17:00 北北東 7 10km以上 6 81 1009 弱いしゅう雨
25 16:00 北北東 7 10km以上 7 70 1010 弱いしゅう雨
25 15:00 北東 5 10km以上 8 76 1011 周辺でしゅう雨
25 14:00 北東 5 10km以上 8 81 1011
25 13:00 北東 6 10km以上 8 81 1013
25 12:00 北北東 5 10km以上 8 81 1014 弱い雨
25 11:00 北北東 4 10km以上 7 81 1014
25 10:00 北東 5 10km以上 7 81 1015
25 09:00 北北東 5 10km以上 6 87 1015
25 08:00 北北東 5 10km以上 5 93 1016
25 07:00 北北東 4 10km以上 4 100 1016
25 06:45 北北東 3 10km以上 4 100 1016
RJCK 261100Z 17006KT 9999 FEW050 07/04 Q1000
RJCK 261000Z 20009KT 9999 FEW050 08/04 Q0999
RJCK 260900Z 19010KT 9999 FEW040 SCT150 08/04 Q0999
RJCK 260800Z 31006KT 9999 FEW040 BKN150 13/04 Q0998
RJCK 260700Z 32008KT 290V350 9999 FEW030 BKN100 13/04 Q0998
RJCK 260600Z 33011KT 9999 FEW020 BKN040 12/05 Q0997
RJCK 260500Z 34009KT 9999 -SHRA FEW015 SCT020 BKN035 12/05 Q0997
RJCK 260400Z 34012KT 310V020 9999 FEW015 SCT040 BKN060 15/05 Q0996
RJCK 260300Z 29006KT 260V330 9999 FEW015 SCT030 BKN060 13/05 Q0997
RJCK 260200Z 31010KT 280V360 9999 FEW015 SCT030 BKN060 12/04 Q0997
RJCK 260100Z 32010KT 9999 -SHRA FEW010 SCT030 BKN050 10/04 Q0998
RJCK 260000Z 32011KT 280V350 9999 FEW020 BKN050 BKN120 10/04 Q0998
RJCK 252300Z 27007KT 9999 FEW020 BKN050 08/03 Q0998
RJCK 252200Z VRB05KT 9999 FEW020 BKN045 07/04 Q0999
RJCK 252145Z 34004KT 290V010 9999 FEW020 BKN040 07/04 Q0999 RMK 1CU020 6CU040 A2951
RJCK 251100Z 01016KT 9999 -SHRA FEW006 SCT009 BKN012 05/04 Q1007
RJCK 251046Z 01016G26KT 9999 -SHRA FEW006 SCT010 BKN015 04/03 Q1007 RMK 2ST006 4ST010 6ST015 A2974
RJCK 251028Z 02016KT 8000 SHRA FEW006 SCT010 BKN015 05/04 Q1007 RMK 2ST006 4ST010 6ST015 A2975
RJCK 251000Z 01014KT 9999 -SHRA FEW006 SCT015 BKN018 05/04 Q1008
RJCK 250900Z 02014KT 9999 -SHRA FEW006 SCT018 BKN025 05/03 Q1008
RJCK 250800Z 02014KT 9999 -SHRA FEW010 SCT025 BKN040 06/03 Q1009
RJCK 250700Z 03013KT 9999 -SHRA FEW010 SCT025 BKN040 07/02 Q1010
RJCK 250600Z 04010KT 010V070 9999 VCSH FEW010 SCT012 BKN018 08/04 Q1011
RJCK 250500Z 04010KT 9999 FEW008 SCT010 BKN012 08/05 Q1011
RJCK 250400Z 05012KT 020V080 9999 FEW009 BKN015 08/05 Q1013
RJCK 250300Z 03010KT 350V060 9999 -RA FEW005 SCT009 BKN015 08/05 Q1014
RJCK 250200Z 02008KT 9999 FEW007 SCT012 BKN018 07/04 Q1014
RJCK 250100Z 04010KT 9999 FEW007 SCT010 BKN015 07/04 Q1015
RJCK 250000Z 03009KT 9999 FEW007 SCT010 BKN015 06/04 Q1015
RJCK 242300Z 03010KT 9999 FEW007 BKN015 BKN120 05/04 Q1016
RJCK 242200Z 03007KT 9999 FEW005 BKN010 BKN120 04/04 Q1016
RJCK 242145Z 02006KT 360V060 9999 FEW003 BKN010 BKN120 04/04 Q1016 RMK 2ST003 5ST010 7AC120 A3002